sensor_id;sensor_type;location;lat;lon;timestamp;pressure;altitude;pressure_sealevel;temperature;humidity
77954;BME280;67151;52.544;6.034;2023-12-14T00:00:11;100900;;;23.8;41.2
77954;BME280;67151;52.544;6.034;2023-12-14T00:00:26;100900;;;23.8;41.2
77954;BME280;67151;52.544;6.034;2023-12-14T00:00:41;100900;;;23.8;41.2
77954;BME280;67151;52.544;6.034;2023-12-14T00:00:56;100900;;;23.8;41.2
77954;BME280;67151;52.544;6.034;2023-12-14T00:01:11;100900;;;23.8;41.2
77954;BME280;67151;52.544;6.034;2023-12-14T00:01:26;100900;;;23.8;41.1
77954;BME280;67151;52.544;6.034;2023-12-14T00:01:41;100900;;;23.8;41.1
77954;BME280;67151;52.544;6.034;2023-12-14T00:01:56;100900;;;23.9;41.1
77954;BME280;67151;52.544;6.034;2023-12-14T00:02:11;100910;;;23.9;41.1
77954;BME280;67151;52.544;6.034;2023-12-14T00:02:26;100900;;;23.9;41
77954;BME280;67151;52.544;6.034;2023-12-14T00:02:41;100910;;;23.9;41
77954;BME280;67151;52.544;6.034;2023-12-14T00:02:56;100900;;;23.9;41
77954;BME280;67151;52.544;6.034;2023-12-14T00:03:11;100900;;;23.9;41
77954;BME280;67151;52.544;6.034;2023-12-14T00:03:26;100900;;;23.9;40.9
77954;BME280;67151;52.544;6.034;2023-12-14T00:03:41;100900;;;23.9;40.9
77954;BME280;67151;52.544;6.034;2023-12-14T00:03:56;100900;;;23.9;40.9
77954;BME280;67151;52.544;6.034;2023-12-14T00:04:11;100900;;;23.9;40.9
77954;BME280;67151;52.544;6.034;2023-12-14T00:04:26;100900;;;23.9;40.9
77954;BME280;67151;52.544;6.034;2023-12-14T00:04:41;100910;;;23.9;41
77954;BME280;67151;52.544;6.034;2023-12-14T00:04:56;100910;;;23.9;41
77954;BME280;67151;52.544;6.034;2023-12-14T00:05:11;100910;;;23.9;41
77954;BME280;67151;52.544;6.034;2023-12-14T00:05:26;100920;;;23.9;41.1
77954;BME280;67151;52.544;6.034;2023-12-14T00:05:41;100910;;;23.9;41
77954;BME280;67151;52.544;6.034;2023-12-14T00:05:56;100910;;;23.9;41
77954;BME280;67151;52.544;6.034;2023-12-14T00:06:12;100920;;;23.8;41.1
77954;BME280;67151;52.544;6.034;2023-12-14T00:06:26;100910;;;23.8;41.1
77954;BME280;67151;52.544;6.034;2023-12-14T00:06:41;100910;;;23.8;41
77954;BME280;67151;52.544;6.034;2023-12-14T00:06:56;100910;;;23.9;41
77954;BME280;67151;52.544;6.034;2023-12-14T00:07:11;100910;;;23.9;41
77954;BME280;67151;52.544;6.034;2023-12-14T00:07:26;100920;;;23.9;41
77954;BME280;67151;52.544;6.034;2023-12-14T00:07:41;100920;;;23.9;41
77954;BME280;67151;52.544;6.034;2023-12-14T00:07:56;100910;;;23.9;41
77954;BME280;67151;52.544;6.034;2023-12-14T00:08:11;100920;;;23.9;40.9
77954;BME280;67151;52.544;6.034;2023-12-14T00:08:26;100910;;;23.9;40.9
77954;BME280;67151;52.544;6.034;2023-12-14T00:08:41;100910;;;23.9;41
77954;BME280;67151;52.544;6.034;2023-12-14T00:08:56;100910;;;23.9;41
77954;BME280;67151;52.544;6.034;2023-12-14T00:09:11;100910;;;23.8;41.1
77954;BME280;67151;52.544;6.034;2023-12-14T00:09:26;100920;;;23.8;41.1
77954;BME280;67151;52.544;6.034;2023-12-14T00:09:41;100910;;;23.9;41
77954;BME280;67151;52.544;6.034;2023-12-14T00:09:56;100910;;;23.8;41.1
77954;BME280;67151;52.544;6.034;2023-12-14T00:10:11;100910;;;23.9;41.1
77954;BME280;67151;52.544;6.034;2023-12-14T00:10:26;100920;;;23.9;41.1
77954;BME280;67151;52.544;6.034;2023-12-14T00:10:41;100920;;;23.9;41.1
77954;BME280;67151;52.544;6.034;2023-12-14T00:10:56;100920;;;23.8;41
77954;BME280;67151;52.544;6.034;2023-12-14T00:11:11;100920;;;23.9;40.9
77954;BME280;67151;52.544;6.034;2023-12-14T00:11:26;100920;;;23.9;40.9
77954;BME280;67151;52.544;6.034;2023-12-14T00:11:41;100920;;;23.9;40.9
77954;BME280;67151;52.544;6.034;2023-12-14T00:11:56;100920;;;23.9;40.8
77954;BME280;67151;52.544;6.034;2023-12-14T00:12:11;100920;;;23.9;40.8
77954;BME280;67151;52.544;6.034;2023-12-14T00:12:26;100920;;;23.9;41
77954;BME280;67151;52.544;6.034;2023-12-14T00:12:41;100930;;;23.8;41
77954;BME280;67151;52.544;6.034;2023-12-14T00:12:56;100930;;;23.8;41
77954;BME280;67151;52.544;6.034;2023-12-14T00:13:11;100920;;;23.8;41.1
77954;BME280;67151;52.544;6.034;2023-12-14T00:13:26;100930;;;23.9;41.1
77954;BME280;67151;52.544;6.034;2023-12-14T00:13:41;100920;;;23.8;41.1
77954;BME280;67151;52.544;6.034;2023-12-14T00:13:56;100920;;;23.9;41
77954;BME280;67151;52.544;6.034;2023-12-14T00:14:11;100930;;;23.9;41
77954;BME280;67151;52.544;6.034;2023-12-14T00:14:26;100930;;;23.8;41.1
77954;BME280;67151;52.544;6.034;2023-12-14T00:14:41;100930;;;23.9;41
77954;BME280;67151;52.544;6.034;2023-12-14T00:14:56;100930;;;23.9;40.9
77954;BME280;67151;52.544;6.034;2023-12-14T00:15:11;100930;;;23.9;41
77954;BME280;67151;52.544;6.034;2023-12-14T00:15:26;100930;;;23.9;40.9
77954;BME280;67151;52.544;6.034;2023-12-14T00:15:41;100930;;;23.9;40.9
77954;BME280;67151;52.544;6.034;2023-12-14T00:15:56;100930;;;23.9;40.9
77954;BME280;67151;52.544;6.034;2023-12-14T00:16:11;100930;;;23.9;40.9
77954;BME280;67151;52.544;6.034;2023-12-14T00:16:26;100930;;;23.9;40.9
77954;BME280;67151;52.544;6.034;2023-12-14T00:16:41;100930;;;23.8;41
77954;BME280;67151;52.544;6.034;2023-12-14T00:16:56;100930;;;23.9;41
77954;BME280;67151;52.544;6.034;2023-12-14T00:17:11;100920;;;23.8;41
77954;BME280;67151;52.544;6.034;2023-12-14T00:17:26;100920;;;23.9;41
77954;BME280;67151;52.544;6.034;2023-12-14T00:17:41;100930;;;23.9;40.9
77954;BME280;67151;52.544;6.034;2023-12-14T00:17:56;100940;;;23.9;41
77954;BME280;67151;52.544;6.034;2023-12-14T00:18:11;100930;;;23.8;41
77954;BME280;67151;52.544;6.034;2023-12-14T00:18:26;100930;;;23.8;41.1
77954;BME280;67151;52.544;6.034;2023-12-14T00:18:41;100930;;;23.8;41
77954;BME280;67151;52.544;6.034;2023-12-14T00:18:56;100930;;;23.9;40.9
77954;BME280;67151;52.544;6.034;2023-12-14T00:19:11;100940;;;23.8;41
77954;BME280;67151;52.544;6.034;2023-12-14T00:19:26;100940;;;23.9;40.9
77954;BME280;67151;52.544;6.034;2023-12-14T00:19:41;100940;;;23.9;40.9
77954;BME280;67151;52.544;6.034;2023-12-14T00:19:56;100940;;;23.9;40.9
77954;BME280;67151;52.544;6.034;2023-12-14T00:20:11;100930;;;23.9;40.9
77954;BME280;67151;52.544;6.034;2023-12-14T00:20:26;100930;;;23.9;40.9
77954;BME280;67151;52.544;6.034;2023-12-14T00:20:41;100940;;;23.9;40.9
77954;BME280;67151;52.544;6.034;2023-12-14T00:20:56;100940;;;23.8;41
77954;BME280;67151;52.544;6.034;2023-12-14T00:21:11;100940;;;23.8;41
77954;BME280;67151;52.544;6.034;2023-12-14T00:21:26;100940;;;23.9;41
77954;BME280;67151;52.544;6.034;2023-12-14T00:21:41;100940;;;23.9;40.9
77954;BME280;67151;52.544;6.034;2023-12-14T00:21:56;100940;;;23.9;41
77954;BME280;67151;52.544;6.034;2023-12-14T00:22:11;100950;;;23.9;40.9
77954;BME280;67151;52.544;6.034;2023-12-14T00:22:26;100940;;;23.9;41
77954;BME280;67151;52.544;6.034;2023-12-14T00:22:41;100940;;;23.8;41
77954;BME280;67151;52.544;6.034;2023-12-14T00:22:56;100950;;;23.8;41.1
77954;BME280;67151;52.544;6.034;2023-12-14T00:23:12;100940;;;23.9;40.9
77954;BME280;67151;52.544;6.034;2023-12-14T00:23:26;100940;;;23.9;40.8
77954;BME280;67151;52.544;6.034;2023-12-14T00:23:41;100950;;;23.9;40.9
77954;BME280;67151;52.544;6.034;2023-12-14T00:23:56;100940;;;23.9;40.8
77954;BME280;67151;52.544;6.034;2023-12-14T00:24:11;100950;;;23.8;41
77954;BME280;67151;52.544;6.034;2023-12-14T00:24:26;100940;;;23.9;40.9
77954;BME280;67151;52.544;6.034;2023-12-14T00:24:41;100950;;;23.8;41
77954;BME280;67151;52.544;6.034;2023-12-14T00:24:56;100950;;;23.9;40.9
77954;BME280;67151;52.544;6.034;2023-12-14T00:25:11;100950;;;23.9;41
77954;BME280;67151;52.544;6.034;2023-12-14T00:25:26;100950;;;23.9;41
77954;BME280;67151;52.544;6.034;2023-12-14T00:25:41;100940;;;23.8;41
77954;BME280;67151;52.544;6.034;2023-12-14T00:25:56;100940;;;23.8;41
77954;BME280;67151;52.544;6.034;2023-12-14T00:26:11;100940;;;23.8;41
77954;BME280;67151;52.544;6.034;2023-12-14T00:26:26;100950;;;23.8;41
77954;BME280;67151;52.544;6.034;2023-12-14T00:26:41;100940;;;23.8;41
77954;BME280;67151;52.544;6.034;2023-12-14T00:26:56;100950;;;23.9;40.9
77954;BME280;67151;52.544;6.034;2023-12-14T00:27:11;100950;;;23.8;41
77954;BME280;67151;52.544;6.034;2023-12-14T00:27:26;100950;;;23.9;40.9
77954;BME280;67151;52.544;6.034;2023-12-14T00:27:41;100940;;;23.9;40.9
77954;BME280;67151;52.544;6.034;2023-12-14T00:27:56;100950;;;23.8;40.9
77954;BME280;67151;52.544;6.034;2023-12-14T00:28:11;100940;;;23.9;40.9
77954;BME280;67151;52.544;6.034;2023-12-14T00:28:26;100950;;;23.8;41
77954;BME280;67151;52.544;6.034;2023-12-14T00:28:41;100950;;;23.9;41
77954;BME280;67151;52.544;6.034;2023-12-14T00:28:56;100950;;;23.8;40.7
77954;BME280;67151;52.544;6.034;2023-12-14T00:29:11;100960;;;23.8;41
77954;BME280;67151;52.544;6.034;2023-12-14T00:29:26;100940;;;23.9;40.9
77954;BME280;67151;52.544;6.034;2023-12-14T00:29:41;100950;;;23.9;41
77954;BME280;67151;52.544;6.034;2023-12-14T00:29:56;100960;;;23.8;41
77954;BME280;67151;52.544;6.034;2023-12-14T00:30:11;100950;;;23.8;41
77954;BME280;67151;52.544;6.034;2023-12-14T00:30:26;100950;;;23.9;41
77954;BME280;67151;52.544;6.034;2023-12-14T00:30:41;100950;;;23.8;41
77954;BME280;67151;52.544;6.034;2023-12-14T00:30:56;100960;;;23.9;40.9
77954;BME280;67151;52.544;6.034;2023-12-14T00:31:11;100960;;;23.9;40.9
77954;BME280;67151;52.544;6.034;2023-12-14T00:31:26;100960;;;23.9;40.9
77954;BME280;67151;52.544;6.034;2023-12-14T00:31:41;100960;;;23.9;41
77954;BME280;67151;52.544;6.034;2023-12-14T00:31:56;100960;;;23.9;40.8
77954;BME280;67151;52.544;6.034;2023-12-14T00:32:11;100960;;;23.9;40.8
77954;BME280;67151;52.544;6.034;2023-12-14T00:32:26;100960;;;23.9;40.8
77954;BME280;67151;52.544;6.034;2023-12-14T00:32:41;100960;;;23.9;40.8
77954;BME280;67151;52.544;6.034;2023-12-14T00:32:56;100960;;;23.9;40.7
77954;BME280;67151;52.544;6.034;2023-12-14T00:33:11;100970;;;23.9;40.7
77954;BME280;67151;52.544;6.034;2023-12-14T00:33:26;100960;;;23.9;40.9
77954;BME280;67151;52.544;6.034;2023-12-14T00:33:41;100960;;;23.9;40.9
77954;BME280;67151;52.544;6.034;2023-12-14T00:33:56;100960;;;23.8;40.9
77954;BME280;67151;52.544;6.034;2023-12-14T00:34:11;100960;;;23.8;41
77954;BME280;67151;52.544;6.034;2023-12-14T00:34:26;100960;;;23.9;41
77954;BME280;67151;52.544;6.034;2023-12-14T00:34:41;100960;;;23.8;41
77954;BME280;67151;52.544;6.034;2023-12-14T00:34:56;100970;;;23.8;40.9
77954;BME280;67151;52.544;6.034;2023-12-14T00:35:12;100960;;;23.9;40.9
77954;BME280;67151;52.544;6.034;2023-12-14T00:35:26;100960;;;23.9;40.9
77954;BME280;67151;52.544;6.034;2023-12-14T00:35:41;100970;;;23.8;40.9
77954;BME280;67151;52.544;6.034;2023-12-14T00:35:56;100960;;;23.8;40.9
77954;BME280;67151;52.544;6.034;2023-12-14T00:36:17;100960;;;23.8;41
77954;BME280;67151;52.544;6.034;2023-12-14T00:36:26;100960;;;23.8;41
77954;BME280;67151;52.544;6.034;2023-12-14T00:36:41;100960;;;23.8;41
77954;BME280;67151;52.544;6.034;2023-12-14T00:36:56;100960;;;23.8;41
77954;BME280;67151;52.544;6.034;2023-12-14T00:37:11;100970;;;23.8;40.9
77954;BME280;67151;52.544;6.034;2023-12-14T00:37:26;100970;;;23.9;40.9
77954;BME280;67151;52.544;6.034;2023-12-14T00:37:41;100960;;;23.9;40.8
77954;BME280;67151;52.544;6.034;2023-12-14T00:37:56;100960;;;23.9;40.8
77954;BME280;67151;52.544;6.034;2023-12-14T00:38:11;100970;;;23.9;40.9
77954;BME280;67151;52.544;6.034;2023-12-14T00:38:26;100970;;;23.9;40.8
77954;BME280;67151;52.544;6.034;2023-12-14T00:38:41;100970;;;23.9;40.8
77954;BME280;67151;52.544;6.034;2023-12-14T00:38:56;100970;;;23.9;40.9
77954;BME280;67151;52.544;6.034;2023-12-14T00:39:11;100970;;;23.8;40.9
77954;BME280;67151;52.544;6.034;2023-12-14T00:39:26;100970;;;23.9;40.9
77954;BME280;67151;52.544;6.034;2023-12-14T00:39:41;100970;;;23.8;40.9
77954;BME280;67151;52.544;6.034;2023-12-14T00:39:56;100970;;;23.9;40.9
77954;BME280;67151;52.544;6.034;2023-12-14T00:40:11;100970;;;23.8;41
77954;BME280;67151;52.544;6.034;2023-12-14T00:40:26;100960;;;23.9;40.9
77954;BME280;67151;52.544;6.034;2023-12-14T00:40:41;100970;;;23.9;40.9
77954;BME280;67151;52.544;6.034;2023-12-14T00:40:56;100960;;;23.9;40.8
77954;BME280;67151;52.544;6.034;2023-12-14T00:41:11;100970;;;23.8;40.9
77954;BME280;67151;52.544;6.034;2023-12-14T00:41:26;100960;;;23.9;40.9
77954;BME280;67151;52.544;6.034;2023-12-14T00:41:41;100970;;;23.8;40.9
77954;BME280;67151;52.544;6.034;2023-12-14T00:41:56;100970;;;23.8;41.1
77954;BME280;67151;52.544;6.034;2023-12-14T00:42:11;100970;;;23.8;41
77954;BME280;67151;52.544;6.034;2023-12-14T00:42:26;100970;;;23.9;40.9
77954;BME280;67151;52.544;6.034;2023-12-14T00:42:41;100960;;;23.8;40.9
77954;BME280;67151;52.544;6.034;2023-12-14T00:42:56;100970;;;23.8;41
77954;BME280;67151;52.544;6.034;2023-12-14T00:43:11;100970;;;23.8;41
77954;BME280;67151;52.544;6.034;2023-12-14T00:43:26;100970;;;23.8;41
77954;BME280;67151;52.544;6.034;2023-12-14T00:43:41;100970;;;23.8;41
77954;BME280;67151;52.544;6.034;2023-12-14T00:43:56;100970;;;23.9;40.9
77954;BME280;67151;52.544;6.034;2023-12-14T00:44:11;100970;;;23.8;41
77954;BME280;67151;52.544;6.034;2023-12-14T00:44:26;100970;;;23.8;41
77954;BME280;67151;52.544;6.034;2023-12-14T00:44:41;100970;;;23.8;41
77954;BME280;67151;52.544;6.034;2023-12-14T00:44:56;100970;;;23.8;41
77954;BME280;67151;52.544;6.034;2023-12-14T00:45:11;100970;;;23.8;41
77954;BME280;67151;52.544;6.034;2023-12-14T00:45:26;100970;;;23.8;41
77954;BME280;67151;52.544;6.034;2023-12-14T00:45:41;100970;;;23.8;41
77954;BME280;67151;52.544;6.034;2023-12-14T00:45:56;100970;;;23.8;41
77954;BME280;67151;52.544;6.034;2023-12-14T00:46:11;100970;;;23.8;41
77954;BME280;67151;52.544;6.034;2023-12-14T00:46:26;100970;;;23.8;40.9
77954;BME280;67151;52.544;6.034;2023-12-14T00:46:41;100970;;;23.8;41
77954;BME280;67151;52.544;6.034;2023-12-14T00:46:56;100970;;;23.8;41
77954;BME280;67151;52.544;6.034;2023-12-14T00:47:11;100970;;;23.8;41
77954;BME280;67151;52.544;6.034;2023-12-14T00:47:26;100970;;;23.8;41
77954;BME280;67151;52.544;6.034;2023-12-14T00:47:41;100960;;;23.8;41
77954;BME280;67151;52.544;6.034;2023-12-14T00:47:56;100960;;;23.8;41
77954;BME280;67151;52.544;6.034;2023-12-14T00:48:11;100970;;;23.8;41
77954;BME280;67151;52.544;6.034;2023-12-14T00:48:26;100960;;;23.8;41.1
77954;BME280;67151;52.544;6.034;2023-12-14T00:48:41;100970;;;23.8;41.1
77954;BME280;67151;52.544;6.034;2023-12-14T00:48:56;100970;;;23.8;41
77954;BME280;67151;52.544;6.034;2023-12-14T00:49:11;100970;;;23.7;41.1
77954;BME280;67151;52.544;6.034;2023-12-14T00:49:26;100970;;;23.8;41.1
77954;BME280;67151;52.544;6.034;2023-12-14T00:49:41;100970;;;23.7;41.1
77954;BME280;67151;52.544;6.034;2023-12-14T00:49:56;100960;;;23.8;41.1
77954;BME280;67151;52.544;6.034;2023-12-14T00:50:11;100960;;;23.8;41
77954;BME280;67151;52.544;6.034;2023-12-14T00:50:26;100960;;;23.8;41
77954;BME280;67151;52.544;6.034;2023-12-14T00:50:41;100970;;;23.8;40.9
77954;BME280;67151;52.544;6.034;2023-12-14T00:50:56;100970;;;23.8;40.9
77954;BME280;67151;52.544;6.034;2023-12-14T00:51:11;100970;;;23.8;40.9
77954;BME280;67151;52.544;6.034;2023-12-14T00:51:26;100970;;;23.8;40.9
77954;BME280;67151;52.544;6.034;2023-12-14T00:51:41;100970;;;23.8;40.9
77954;BME280;67151;52.544;6.034;2023-12-14T00:51:56;100980;;;23.8;40.9
77954;BME280;67151;52.544;6.034;2023-12-14T00:52:11;100970;;;23.9;40.8
77954;BME280;67151;52.544;6.034;2023-12-14T00:52:26;100980;;;23.9;40.8
77954;BME280;67151;52.544;6.034;2023-12-14T00:52:41;100980;;;23.9;40.9
77954;BME280;67151;52.544;6.034;2023-12-14T00:52:56;100980;;;23.9;40.9
77954;BME280;67151;52.544;6.034;2023-12-14T00:53:11;100980;;;23.9;40.8
77954;BME280;67151;52.544;6.034;2023-12-14T00:53:26;100980;;;23.8;40.9
77954;BME280;67151;52.544;6.034;2023-12-14T00:53:41;100980;;;23.8;40.8
77954;BME280;67151;52.544;6.034;2023-12-14T00:53:56;100980;;;23.8;40.8
77954;BME280;67151;52.544;6.034;2023-12-14T00:54:11;100980;;;23.9;40.8
77954;BME280;67151;52.544;6.034;2023-12-14T00:54:26;100990;;;23.9;40.7
77954;BME280;67151;52.544;6.034;2023-12-14T00:54:41;100980;;;23.8;40.9
77954;BME280;67151;52.544;6.034;2023-12-14T00:54:56;100990;;;23.9;40.8
77954;BME280;67151;52.544;6.034;2023-12-14T00:55:11;100990;;;23.9;40.8
77954;BME280;67151;52.544;6.034;2023-12-14T00:55:26;100980;;;23.8;40.8
77954;BME280;67151;52.544;6.034;2023-12-14T00:55:41;100990;;;23.8;40.9
77954;BME280;67151;52.544;6.034;2023-12-14T00:55:56;100990;;;23.9;40.9
77954;BME280;67151;52.544;6.034;2023-12-14T00:56:11;100990;;;23.8;41
77954;BME280;67151;52.544;6.034;2023-12-14T00:56:26;100990;;;23.8;40.9
77954;BME280;67151;52.544;6.034;2023-12-14T00:56:41;100990;;;23.8;40.9
77954;BME280;67151;52.544;6.034;2023-12-14T00:56:56;100980;;;23.8;40.8
77954;BME280;67151;52.544;6.034;2023-12-14T00:57:11;100990;;;23.8;40.9
77954;BME280;67151;52.544;6.034;2023-12-14T00:57:26;100990;;;23.8;40.9
77954;BME280;67151;52.544;6.034;2023-12-14T00:57:41;100990;;;23.8;40.9
77954;BME280;67151;52.544;6.034;2023-12-14T00:57:56;100990;;;23.8;40.9
77954;BME280;67151;52.544;6.034;2023-12-14T00:58:11;100980;;;23.9;40.8
77954;BME280;67151;52.544;6.034;2023-12-14T00:58:26;100990;;;23.9;40.8
77954;BME280;67151;52.544;6.034;2023-12-14T00:58:41;100990;;;23.9;40.8
77954;BME280;67151;52.544;6.034;2023-12-14T00:58:56;100990;;;23.8;40.9
77954;BME280;67151;52.544;6.034;2023-12-14T00:59:11;100990;;;23.9;40.8
77954;BME280;67151;52.544;6.034;2023-12-14T00:59:26;100990;;;23.9;40.8
77954;BME280;67151;52.544;6.034;2023-12-14T00:59:41;100990;;;23.9;40.7
77954;BME280;67151;52.544;6.034;2023-12-14T00:59:56;100990;;;23.9;40.8
77954;BME280;67151;52.544;6.034;2023-12-14T01:00:11;100990;;;23.9;40.7
77954;BME280;67151;52.544;6.034;2023-12-14T01:00:26;101000;;;23.9;40.8
77954;BME280;67151;52.544;6.034;2023-12-14T01:00:41;101000;;;23.8;40.8
77954;BME280;67151;52.544;6.034;2023-12-14T01:00:56;100990;;;23.8;40.9
77954;BME280;67151;52.544;6.034;2023-12-14T01:01:11;100990;;;23.9;40.8
77954;BME280;67151;52.544;6.034;2023-12-14T01:01:26;100990;;;23.8;40.9
77954;BME280;67151;52.544;6.034;2023-12-14T01:01:41;100990;;;23.8;40.9
77954;BME280;67151;52.544;6.034;2023-12-14T01:01:56;100990;;;23.8;40.8
77954;BME280;67151;52.544;6.034;2023-12-14T01:02:11;101000;;;23.9;40.8
77954;BME280;67151;52.544;6.034;2023-12-14T01:02:26;101000;;;23.9;40.8
77954;BME280;67151;52.544;6.034;2023-12-14T01:02:41;100990;;;23.9;40.8
77954;BME280;67151;52.544;6.034;2023-12-14T01:02:56;100990;;;23.9;40.8
77954;BME280;67151;52.544;6.034;2023-12-14T01:03:11;100990;;;23.8;40.8
77954;BME280;67151;52.544;6.034;2023-12-14T01:03:26;100990;;;23.8;40.8
77954;BME280;67151;52.544;6.034;2023-12-14T01:03:41;100990;;;23.8;40.8
77954;BME280;67151;52.544;6.034;2023-12-14T01:03:56;100990;;;23.8;40.9
77954;BME280;67151;52.544;6.034;2023-12-14T01:04:11;100990;;;23.8;40.9
77954;BME280;67151;52.544;6.034;2023-12-14T01:04:26;100990;;;23.8;40.9
77954;BME280;67151;52.544;6.034;2023-12-14T01:04:41;101000;;;23.8;40.8
77954;BME280;67151;52.544;6.034;2023-12-14T01:04:56;100990;;;23.8;40.9
77954;BME280;67151;52.544;6.034;2023-12-14T01:05:11;101000;;;23.8;40.8
77954;BME280;67151;52.544;6.034;2023-12-14T01:05:26;101000;;;23.9;40.7
77954;BME280;67151;52.544;6.034;2023-12-14T01:05:41;100990;;;23.8;40.8
77954;BME280;67151;52.544;6.034;2023-12-14T01:05:56;100990;;;23.9;40.8
77954;BME280;67151;52.544;6.034;2023-12-14T01:06:11;100990;;;23.8;40.8
77954;BME280;67151;52.544;6.034;2023-12-14T01:06:26;101000;;;23.8;40.8
77954;BME280;67151;52.544;6.034;2023-12-14T01:06:41;101000;;;23.8;40.8
77954;BME280;67151;52.544;6.034;2023-12-14T01:06:56;100990;;;23.8;40.8
77954;BME280;67151;52.544;6.034;2023-12-14T01:07:11;101000;;;23.8;40.8
77954;BME280;67151;52.544;6.034;2023-12-14T01:07:26;101000;;;23.8;40.8
77954;BME280;67151;52.544;6.034;2023-12-14T01:07:41;101000;;;23.8;40.9
77954;BME280;67151;52.544;6.034;2023-12-14T01:07:56;101000;;;23.8;40.9
77954;BME280;67151;52.544;6.034;2023-12-14T01:08:11;101000;;;23.8;41
77954;BME280;67151;52.544;6.034;2023-12-14T01:08:26;101010;;;23.8;40.9
77954;BME280;67151;52.544;6.034;2023-12-14T01:08:41;101000;;;23.8;41
77954;BME280;67151;52.544;6.034;2023-12-14T01:08:56;101000;;;23.8;41
77954;BME280;67151;52.544;6.034;2023-12-14T01:09:11;101000;;;23.8;40.9
77954;BME280;67151;52.544;6.034;2023-12-14T01:09:26;101000;;;23.8;40.9
77954;BME280;67151;52.544;6.034;2023-12-14T01:09:41;101010;;;23.8;40.8
77954;BME280;67151;52.544;6.034;2023-12-14T01:09:56;101000;;;23.8;40.8
77954;BME280;67151;52.544;6.034;2023-12-14T01:10:11;101000;;;23.9;40.7
77954;BME280;67151;52.544;6.034;2023-12-14T01:10:26;101010;;;23.9;40.7
77954;BME280;67151;52.544;6.034;2023-12-14T01:10:41;101000;;;23.8;40.8
77954;BME280;67151;52.544;6.034;2023-12-14T01:10:56;101000;;;23.8;40.8
77954;BME280;67151;52.544;6.034;2023-12-14T01:11:11;101000;;;23.8;40.8
77954;BME280;67151;52.544;6.034;2023-12-14T01:11:26;101000;;;23.8;40.9
77954;BME280;67151;52.544;6.034;2023-12-14T01:11:41;101000;;;23.8;40.9
77954;BME280;67151;52.544;6.034;2023-12-14T01:11:56;101000;;;23.8;40.9
77954;BME280;67151;52.544;6.034;2023-12-14T01:12:11;101000;;;23.8;40.9
77954;BME280;67151;52.544;6.034;2023-12-14T01:12:26;101010;;;23.8;40.8
77954;BME280;67151;52.544;6.034;2023-12-14T01:12:41;101000;;;23.8;40.9
77954;BME280;67151;52.544;6.034;2023-12-14T01:12:56;101000;;;23.8;40.8
77954;BME280;67151;52.544;6.034;2023-12-14T01:13:11;101010;;;23.8;40.8
77954;BME280;67151;52.544;6.034;2023-12-14T01:13:26;101010;;;23.8;40.9
77954;BME280;67151;52.544;6.034;2023-12-14T01:13:41;101010;;;23.8;40.9
77954;BME280;67151;52.544;6.034;2023-12-14T01:13:56;101000;;;23.9;40.8
77954;BME280;67151;52.544;6.034;2023-12-14T01:14:11;101000;;;23.8;40.9
77954;BME280;67151;52.544;6.034;2023-12-14T01:14:26;101000;;;23.8;40.9
77954;BME280;67151;52.544;6.034;2023-12-14T01:14:41;101000;;;23.8;40.9
77954;BME280;67151;52.544;6.034;2023-12-14T01:14:56;101000;;;23.8;40.8
77954;BME280;67151;52.544;6.034;2023-12-14T01:15:11;101010;;;23.8;40.9
77954;BME280;67151;52.544;6.034;2023-12-14T01:15:26;101010;;;23.8;40.9
77954;BME280;67151;52.544;6.034;2023-12-14T01:15:41;101010;;;23.8;40.9
77954;BME280;67151;52.544;6.034;2023-12-14T01:15:56;101010;;;23.8;40.8
77954;BME280;67151;52.544;6.034;2023-12-14T01:16:11;101010;;;23.9;40.8
77954;BME280;67151;52.544;6.034;2023-12-14T01:16:26;101010;;;23.9;40.7
77954;BME280;67151;52.544;6.034;2023-12-14T01:16:41;101010;;;23.9;40.7
77954;BME280;67151;52.544;6.034;2023-12-14T01:16:56;101020;;;23.9;40.7
77954;BME280;67151;52.544;6.034;2023-12-14T01:17:11;101020;;;23.9;40.7
77954;BME280;67151;52.544;6.034;2023-12-14T01:17:26;101010;;;23.9;40.7
77954;BME280;67151;52.544;6.034;2023-12-14T01:17:41;101010;;;23.9;40.7
77954;BME280;67151;52.544;6.034;2023-12-14T01:17:56;101020;;;23.9;40.7
77954;BME280;67151;52.544;6.034;2023-12-14T01:18:11;101020;;;23.9;40.7
77954;BME280;67151;52.544;6.034;2023-12-14T01:18:26;101020;;;23.9;40.8
77954;BME280;67151;52.544;6.034;2023-12-14T01:18:41;101020;;;23.9;40.7
77954;BME280;67151;52.544;6.034;2023-12-14T01:18:56;101020;;;23.8;40.7
77954;BME280;67151;52.544;6.034;2023-12-14T01:19:11;101030;;;23.9;40.7
77954;BME280;67151;52.544;6.034;2023-12-14T01:19:26;101020;;;23.8;40.8
77954;BME280;67151;52.544;6.034;2023-12-14T01:19:41;101030;;;23.8;40.8
77954;BME280;67151;52.544;6.034;2023-12-14T01:19:56;101030;;;23.9;40.7
77954;BME280;67151;52.544;6.034;2023-12-14T01:20:11;101020;;;23.8;40.7
77954;BME280;67151;52.544;6.034;2023-12-14T01:20:26;101020;;;23.9;40.7
77954;BME280;67151;52.544;6.034;2023-12-14T01:20:41;101030;;;23.8;40.7
77954;BME280;67151;52.544;6.034;2023-12-14T01:20:56;101020;;;23.8;40.8
77954;BME280;67151;52.544;6.034;2023-12-14T01:21:11;101030;;;23.8;40.8
77954;BME280;67151;52.544;6.034;2023-12-14T01:21:26;101030;;;23.8;40.7
77954;BME280;67151;52.544;6.034;2023-12-14T01:21:41;101030;;;23.8;40.7
77954;BME280;67151;52.544;6.034;2023-12-14T01:21:56;101020;;;23.8;40.8
77954;BME280;67151;52.544;6.034;2023-12-14T01:22:11;101030;;;23.8;40.7
77954;BME280;67151;52.544;6.034;2023-12-14T01:22:26;101030;;;23.8;40.8
77954;BME280;67151;52.544;6.034;2023-12-14T01:22:41;101030;;;23.9;40.7
77954;BME280;67151;52.544;6.034;2023-12-14T01:22:56;101040;;;23.9;40.7
77954;BME280;67151;52.544;6.034;2023-12-14T01:23:11;101040;;;23.9;40.7
77954;BME280;67151;52.544;6.034;2023-12-14T01:23:26;101030;;;23.8;40.8
77954;BME280;67151;52.544;6.034;2023-12-14T01:23:41;101040;;;23.8;40.8
77954;BME280;67151;52.544;6.034;2023-12-14T01:23:56;101030;;;23.8;40.8
77954;BME280;67151;52.544;6.034;2023-12-14T01:24:11;101040;;;23.8;40.9
77954;BME280;67151;52.544;6.034;2023-12-14T01:24:26;101030;;;23.8;40.9
77954;BME280;67151;52.544;6.034;2023-12-14T01:24:41;101040;;;23.8;40.8